createdAt,value
2022-12-25T00:00:54.500Z,3.50
2022-12-25T00:01:54.445Z,3.50
2022-12-25T00:02:54.513Z,3.50
2022-12-25T00:03:54.507Z,3.50
2022-12-25T00:04:54.394Z,3.40
2022-12-25T00:05:54.369Z,3.20
2022-12-25T00:06:54.361Z,3.10
2022-12-25T00:07:54.360Z,4.10
2022-12-25T00:08:54.360Z,3.80
2022-12-25T00:09:54.329Z,3.90
2022-12-25T00:10:54.316Z,3.90
2022-12-25T00:11:54.324Z,3.40
2022-12-25T00:12:54.321Z,3.50
2022-12-25T00:13:54.275Z,3.40
2022-12-25T00:14:54.276Z,3.90
2022-12-25T00:15:54.315Z,3.50
2022-12-25T00:16:54.250Z,4.50
2022-12-25T00:17:54.266Z,5.10
2022-12-25T00:18:54.248Z,4.70
2022-12-25T00:19:54.222Z,5.10
2022-12-25T00:20:54.209Z,4.90
2022-12-25T00:21:54.224Z,5.00
2022-12-25T00:22:54.218Z,5.70
2022-12-25T00:23:54.193Z,5.20
2022-12-25T00:24:54.165Z,5.20
2022-12-25T00:25:54.148Z,5.30
2022-12-25T00:26:54.161Z,4.70
2022-12-25T00:27:54.159Z,5.20
2022-12-25T00:28:54.136Z,5.40
2022-12-25T00:29:54.120Z,5.30
2022-12-25T00:30:54.090Z,5.10
2022-12-25T00:31:54.117Z,5.70
2022-12-25T00:32:54.093Z,5.30
2022-12-25T00:33:54.084Z,5.40
2022-12-25T00:34:54.055Z,5.00
2022-12-25T00:35:54.043Z,5.00
2022-12-25T00:36:54.066Z,5.30
2022-12-25T00:37:54.051Z,5.20
2022-12-25T00:38:54.013Z,5.20
2022-12-25T00:39:54.020Z,5.40
2022-12-25T00:40:53.993Z,5.00
2022-12-25T00:41:53.994Z,4.80
2022-12-25T00:42:53.987Z,5.50
2022-12-25T00:43:53.962Z,4.90
2022-12-25T00:44:53.935Z,4.90
2022-12-25T00:45:53.955Z,4.70
2022-12-25T00:46:53.957Z,5.60
2022-12-25T00:47:53.935Z,5.00
2022-12-25T00:48:53.906Z,5.20
2022-12-25T00:49:53.916Z,4.70
2022-12-25T00:50:53.872Z,5.30
2022-12-25T00:51:53.881Z,4.70
2022-12-25T00:52:53.882Z,5.50
2022-12-25T00:53:53.865Z,4.90
2022-12-25T00:54:53.838Z,5.80
2022-12-25T00:55:53.834Z,5.20
2022-12-25T00:56:53.827Z,5.70
2022-12-25T00:57:53.812Z,5.20
2022-12-25T00:58:53.804Z,5.80
2022-12-25T00:59:53.790Z,5.20
2022-12-25T01:00:53.800Z,5.10
2022-12-25T01:01:53.934Z,5.00
2022-12-25T01:02:53.917Z,5.00
2022-12-25T01:03:53.747Z,4.60
2022-12-25T01:04:53.733Z,4.80
2022-12-25T01:05:53.716Z,4.90
2022-12-25T01:06:53.701Z,4.70
2022-12-25T01:07:53.695Z,5.60
2022-12-25T01:08:53.723Z,5.30
2022-12-25T01:09:53.664Z,5.80
2022-12-25T01:10:53.662Z,5.10
2022-12-25T01:11:53.645Z,5.20
2022-12-25T01:12:53.642Z,5.50
2022-12-25T01:13:53.659Z,5.60
2022-12-25T01:14:53.614Z,5.20
2022-12-25T01:15:53.647Z,5.20
2022-12-25T01:16:53.670Z,5.30
2022-12-25T01:17:53.597Z,4.90
2022-12-25T01:18:53.603Z,5.40
2022-12-25T01:19:53.588Z,5.20
2022-12-25T01:20:53.555Z,5.50
2022-12-25T01:21:53.544Z,4.90
2022-12-25T01:22:53.530Z,5.00
2022-12-25T01:23:53.529Z,5.20
2022-12-25T01:24:53.513Z,5.50
2022-12-25T01:25:53.504Z,5.40
2022-12-25T01:26:53.479Z,5.00
2022-12-25T01:27:54.154Z,4.90
2022-12-25T01:28:53.469Z,5.20
2022-12-25T01:29:53.444Z,5.30
2022-12-25T01:30:53.449Z,5.00
2022-12-25T01:31:53.567Z,5.30
2022-12-25T01:32:53.418Z,5.60
2022-12-25T01:33:53.429Z,5.40
2022-12-25T01:34:56.217Z,5.30
2022-12-25T01:35:53.395Z,5.40
2022-12-25T01:36:53.396Z,4.90
2022-12-25T01:37:53.367Z,5.70
2022-12-25T01:38:53.366Z,5.50
2022-12-25T01:39:53.358Z,5.10
2022-12-25T01:40:53.384Z,5.40
2022-12-25T01:41:53.349Z,5.10
2022-12-25T01:42:53.308Z,5.10
2022-12-25T01:43:53.292Z,5.40
2022-12-25T01:44:53.290Z,4.80
2022-12-25T01:45:53.364Z,5.10
2022-12-25T01:46:53.284Z,5.60
2022-12-25T01:47:53.268Z,5.00
2022-12-25T01:48:53.272Z,4.90
2022-12-25T01:49:53.243Z,5.00
2022-12-25T01:50:53.228Z,5.60
2022-12-25T01:51:53.245Z,5.40
2022-12-25T01:52:53.205Z,5.40
2022-12-25T01:53:53.205Z,5.20
2022-12-25T01:54:53.202Z,5.40
2022-12-25T01:55:53.193Z,5.40
2022-12-25T01:56:53.172Z,5.10
2022-12-25T01:57:53.159Z,5.40
2022-12-25T01:58:53.151Z,4.60
2022-12-25T01:59:53.153Z,4.20
2022-12-25T02:00:53.164Z,4.60
2022-12-25T02:01:53.263Z,4.90
2022-12-25T02:02:53.203Z,5.20
2022-12-25T02:03:53.102Z,5.00
2022-12-25T02:04:53.085Z,4.80
2022-12-25T02:05:53.056Z,4.80
2022-12-25T02:06:53.066Z,4.80
2022-12-25T02:07:53.032Z,4.00
2022-12-25T02:08:53.046Z,4.00
2022-12-25T02:09:53.055Z,4.20
2022-12-25T02:10:53.013Z,4.30
2022-12-25T02:11:52.997Z,4.20
2022-12-25T02:12:52.986Z,4.30
2022-12-25T02:13:52.969Z,4.20
2022-12-25T02:14:52.968Z,4.50
2022-12-25T02:15:52.983Z,4.40
2022-12-25T02:16:58.033Z,4.20
2022-12-25T02:17:53.930Z,4.30
2022-12-25T02:18:52.918Z,4.50
2022-12-25T02:19:52.919Z,4.90
2022-12-25T02:20:52.914Z,4.50
2022-12-25T02:21:52.899Z,3.70
2022-12-25T02:22:52.913Z,4.60
2022-12-25T02:23:52.855Z,4.20
2022-12-25T02:25:00.612Z,4.50
2022-12-25T02:25:52.838Z,5.10
2022-12-25T02:26:52.851Z,4.60
2022-12-25T02:27:52.852Z,5.00
2022-12-25T02:28:52.807Z,4.30
2022-12-25T02:29:52.800Z,4.70
2022-12-25T02:30:52.788Z,4.20
2022-12-25T02:31:52.895Z,4.40
2022-12-25T02:32:52.787Z,4.80
2022-12-25T02:33:52.786Z,5.10
2022-12-25T02:34:52.809Z,4.30
2022-12-25T02:35:52.732Z,5.00
2022-12-25T02:36:52.721Z,4.50
2022-12-25T02:37:52.707Z,4.60
2022-12-25T02:38:52.733Z,4.90
2022-12-25T02:39:52.705Z,4.50
2022-12-25T02:40:52.693Z,4.50
2022-12-25T02:41:52.665Z,4.40
2022-12-25T02:42:52.673Z,4.80
2022-12-25T02:43:52.667Z,4.30
2022-12-25T02:44:52.659Z,5.00
2022-12-25T02:45:52.724Z,4.80
2022-12-25T02:46:52.632Z,5.10
2022-12-25T02:47:52.647Z,4.50
2022-12-25T02:48:52.636Z,4.20
2022-12-25T02:49:52.603Z,4.50
2022-12-25T02:50:52.580Z,4.20
2022-12-25T02:51:52.604Z,4.00
2022-12-25T02:52:52.550Z,4.60
2022-12-25T02:53:52.562Z,4.60
2022-12-25T02:54:52.534Z,4.60
2022-12-25T02:55:53.489Z,5.10
2022-12-25T02:56:52.502Z,4.40
2022-12-25T02:57:52.511Z,4.60
2022-12-25T02:58:52.507Z,4.30
2022-12-25T02:59:52.469Z,4.30
2022-12-25T03:00:52.496Z,5.10
2022-12-25T03:01:52.580Z,4.50
2022-12-25T03:02:52.491Z,4.80
2022-12-25T03:03:52.448Z,4.80
2022-12-25T03:04:52.464Z,4.40
2022-12-25T03:05:52.409Z,4.90
2022-12-25T03:06:52.406Z,4.80
2022-12-25T03:07:52.427Z,4.90
2022-12-25T03:08:52.374Z,4.50
2022-12-25T03:09:52.370Z,4.60
2022-12-25T03:10:52.379Z,4.60
2022-12-25T03:11:52.356Z,4.60
2022-12-25T03:12:52.334Z,4.60
2022-12-25T03:13:52.343Z,5.30
2022-12-25T03:14:52.311Z,4.60
2022-12-25T03:15:52.300Z,4.80
2022-12-25T03:16:52.360Z,4.30
2022-12-25T03:17:52.295Z,4.50
2022-12-25T03:18:52.330Z,4.70
2022-12-25T03:19:52.260Z,5.10
2022-12-25T03:20:52.238Z,4.70
2022-12-25T03:21:52.233Z,4.70
2022-12-25T03:22:52.229Z,5.00
2022-12-25T03:23:52.263Z,5.10
2022-12-25T03:24:52.243Z,4.90
2022-12-25T03:25:52.264Z,4.90
2022-12-25T03:26:52.174Z,4.80
2022-12-25T03:27:52.171Z,4.90
2022-12-25T03:28:52.174Z,4.80
2022-12-25T03:29:52.149Z,4.60
2022-12-25T03:30:52.177Z,4.40
2022-12-25T03:31:52.124Z,5.00
2022-12-25T03:32:52.109Z,4.60
2022-12-25T03:33:52.119Z,5.30
2022-12-25T03:34:52.098Z,5.00
2022-12-25T03:35:52.102Z,5.10
2022-12-25T03:36:52.068Z,4.60
2022-12-25T03:37:52.087Z,4.80
2022-12-25T03:38:52.050Z,4.10
2022-12-25T03:39:52.041Z,4.60
2022-12-25T03:40:52.082Z,4.60
2022-12-25T03:41:52.021Z,4.70
2022-12-25T03:42:52.050Z,5.00
2022-12-25T03:43:52.010Z,4.40
2022-12-25T03:44:51.998Z,4.90
2022-12-25T03:45:52.031Z,4.90
2022-12-25T03:46:51.968Z,5.10
2022-12-25T03:47:51.963Z,4.80
2022-12-25T03:48:51.966Z,4.90
2022-12-25T03:49:51.935Z,5.00
2022-12-25T03:50:51.930Z,5.10
2022-12-25T03:51:51.927Z,4.80
2022-12-25T03:52:51.917Z,5.10
2022-12-25T03:53:51.921Z,5.70
2022-12-25T03:54:51.898Z,4.70
2022-12-25T03:55:51.873Z,4.90
2022-12-25T03:56:51.908Z,4.60
2022-12-25T03:57:51.885Z,4.90
2022-12-25T03:58:51.841Z,4.30
2022-12-25T03:59:51.831Z,4.60
2022-12-25T04:00:51.854Z,4.50
2022-12-25T04:01:51.920Z,4.80
2022-12-25T04:02:51.950Z,4.70
2022-12-25T04:03:51.896Z,4.60
2022-12-25T04:04:51.783Z,5.30
2022-12-25T04:05:51.763Z,5.80
2022-12-25T04:06:51.756Z,7.20
2022-12-25T04:07:51.730Z,6.80
2022-12-25T04:08:51.776Z,6.90
2022-12-25T04:09:51.716Z,6.80
2022-12-25T04:10:51.732Z,7.30
2022-12-25T04:11:53.198Z,6.70
2022-12-25T04:12:51.700Z,6.00
2022-12-25T04:13:51.671Z,6.70
2022-12-25T04:14:51.669Z,6.50
2022-12-25T04:15:51.715Z,6.30
2022-12-25T04:16:51.652Z,6.70
2022-12-25T04:17:51.656Z,6.30
2022-12-25T04:18:51.623Z,7.60
2022-12-25T04:19:51.615Z,6.70
2022-12-25T04:20:51.611Z,6.50
2022-12-25T04:21:51.600Z,7.20
2022-12-25T04:22:51.576Z,6.60
2022-12-25T04:23:51.582Z,6.90
2022-12-25T04:24:51.558Z,6.90
2022-12-25T04:25:51.579Z,6.50
2022-12-25T04:26:51.559Z,5.90
2022-12-25T04:27:51.530Z,5.10
2022-12-25T04:28:51.532Z,6.10
2022-12-25T04:29:51.504Z,6.00
2022-12-25T04:30:51.518Z,5.50
2022-12-25T04:31:51.492Z,5.10
2022-12-25T04:32:51.491Z,5.90
2022-12-25T04:33:51.490Z,6.00
2022-12-25T04:34:51.485Z,6.60
2022-12-25T04:35:51.440Z,6.10
2022-12-25T04:36:51.445Z,6.20
2022-12-25T04:37:51.435Z,6.00
2022-12-25T04:38:51.413Z,6.00
2022-12-25T04:39:51.412Z,5.90
2022-12-25T04:40:51.374Z,6.20
2022-12-25T04:41:51.387Z,6.20
2022-12-25T04:42:51.372Z,6.80
2022-12-25T04:43:51.351Z,6.50
2022-12-25T04:44:51.341Z,6.70
2022-12-25T04:45:51.334Z,7.60
2022-12-25T04:46:51.387Z,7.60
2022-12-25T04:47:51.304Z,6.80
2022-12-25T04:48:51.287Z,7.10
2022-12-25T04:49:51.281Z,7.50
2022-12-25T04:50:51.272Z,6.20
2022-12-25T04:51:51.265Z,6.40
2022-12-25T04:52:51.308Z,7.00
2022-12-25T04:53:51.255Z,6.50
2022-12-25T04:54:51.246Z,6.80
2022-12-25T04:55:51.252Z,5.70
2022-12-25T04:56:51.242Z,6.70
2022-12-25T04:57:51.228Z,6.90
2022-12-25T04:58:51.186Z,7.30
2022-12-25T04:59:51.177Z,7.40
2022-12-25T05:00:51.162Z,7.10
2022-12-25T05:01:51.290Z,7.70
2022-12-25T05:02:51.412Z,7.80
2022-12-25T05:03:51.199Z,7.20
2022-12-25T05:04:51.122Z,7.40
2022-12-25T05:05:51.125Z,7.20
2022-12-25T05:06:51.098Z,7.10
2022-12-25T05:07:51.112Z,6.70
2022-12-25T05:08:51.097Z,7.70
2022-12-25T05:09:51.059Z,6.30
2022-12-25T05:10:51.059Z,6.80
2022-12-25T05:11:51.061Z,6.80
2022-12-25T05:12:51.069Z,6.50
2022-12-25T05:13:51.020Z,7.00
2022-12-25T05:14:51.017Z,6.50
2022-12-25T05:15:51.079Z,6.70
2022-12-25T05:16:51.009Z,6.50
2022-12-25T05:17:50.989Z,6.80
2022-12-25T05:18:51.096Z,6.90
2022-12-25T05:19:50.958Z,6.80
2022-12-25T05:20:50.944Z,6.30
2022-12-25T05:21:50.950Z,6.60
2022-12-25T05:22:50.965Z,7.30
2022-12-25T05:23:50.936Z,6.70
2022-12-25T05:24:50.913Z,8.10
2022-12-25T05:25:50.900Z,7.70
2022-12-25T05:26:50.873Z,7.40
2022-12-25T05:27:53.972Z,7.20
2022-12-25T05:28:50.880Z,7.60
2022-12-25T05:29:50.848Z,7.10
2022-12-25T05:30:50.897Z,5.80
2022-12-25T05:31:50.879Z,6.50
2022-12-25T05:32:50.841Z,6.00
2022-12-25T05:33:50.842Z,6.00
2022-12-25T05:34:50.816Z,6.40
2022-12-25T05:35:50.789Z,7.40
2022-12-25T05:36:50.777Z,9.20
2022-12-25T05:37:50.766Z,8.70
2022-12-25T05:38:50.763Z,8.40
2022-12-25T05:39:50.739Z,8.10
2022-12-25T05:40:50.730Z,7.90
2022-12-25T05:41:50.739Z,7.60
2022-12-25T05:42:50.709Z,8.10
2022-12-25T05:43:50.718Z,8.10
2022-12-25T05:44:50.706Z,8.80
2022-12-25T05:45:50.679Z,8.10
2022-12-25T05:46:50.749Z,8.30
2022-12-25T05:47:50.651Z,8.40
2022-12-25T05:48:50.636Z,8.60
2022-12-25T05:49:50.647Z,7.90
2022-12-25T05:50:50.618Z,9.90
2022-12-25T05:51:50.618Z,9.50
2022-12-25T05:52:50.598Z,9.20
2022-12-25T05:53:50.597Z,9.10
2022-12-25T05:54:50.578Z,9.20
2022-12-25T05:55:50.585Z,9.00
2022-12-25T05:56:50.575Z,9.30
2022-12-25T05:57:50.537Z,9.70
2022-12-25T05:58:50.530Z,8.90
2022-12-25T05:59:50.542Z,8.10
2022-12-25T06:00:50.519Z,8.20
2022-12-25T06:01:50.619Z,7.30
2022-12-25T06:02:50.610Z,7.30
2022-12-25T06:03:50.544Z,6.70
2022-12-25T06:04:50.505Z,6.30
2022-12-25T06:05:50.458Z,6.50
2022-12-25T06:06:50.445Z,6.20
2022-12-25T06:07:50.435Z,6.50
2022-12-25T06:08:50.444Z,6.50
2022-12-25T06:09:50.431Z,5.80
2022-12-25T06:10:50.416Z,5.60
2022-12-25T06:11:50.395Z,6.10
2022-12-25T06:12:50.388Z,5.80
2022-12-25T06:13:50.373Z,6.10
2022-12-25T06:14:50.376Z,6.20
2022-12-25T06:15:50.419Z,6.20
2022-12-25T06:16:50.382Z,5.80
2022-12-25T06:17:50.328Z,5.20
2022-12-25T06:18:50.319Z,5.40
2022-12-25T06:19:50.305Z,5.40
2022-12-25T06:20:50.316Z,5.70
2022-12-25T06:21:50.283Z,5.80
2022-12-25T06:22:50.274Z,5.40
2022-12-25T06:23:50.295Z,5.60
2022-12-25T06:24:50.252Z,4.90
2022-12-25T06:25:50.245Z,4.70
2022-12-25T06:26:50.266Z,5.10
2022-12-25T06:27:50.219Z,4.60
2022-12-25T06:28:50.229Z,5.10
2022-12-25T06:29:50.192Z,4.60
2022-12-25T06:30:50.200Z,5.10
2022-12-25T06:31:50.257Z,5.00
2022-12-25T06:32:50.224Z,5.20
2022-12-25T06:33:50.158Z,5.00
2022-12-25T06:34:50.151Z,5.30
2022-12-25T06:35:50.133Z,5.20
2022-12-25T06:36:50.162Z,5.40
2022-12-25T06:37:50.119Z,5.20
2022-12-25T06:38:50.164Z,5.40
2022-12-25T06:39:50.085Z,4.90
2022-12-25T06:40:50.075Z,4.80
2022-12-25T06:41:50.063Z,5.10
2022-12-25T06:42:50.072Z,5.60
2022-12-25T06:43:50.076Z,5.20
2022-12-25T06:44:50.081Z,5.00
2022-12-25T06:45:50.061Z,5.50
2022-12-25T06:46:50.022Z,5.80
2022-12-25T06:47:50.038Z,6.10
2022-12-25T06:48:50.178Z,5.70
2022-12-25T06:49:49.975Z,5.60
2022-12-25T06:50:50.017Z,6.70
2022-12-25T06:51:49.954Z,6.40
2022-12-25T06:52:49.956Z,6.20
2022-12-25T06:53:49.947Z,6.90
2022-12-25T06:54:49.926Z,6.10
2022-12-25T06:55:49.915Z,5.60
2022-12-25T06:56:49.897Z,5.30
2022-12-25T06:57:49.884Z,5.00
2022-12-25T06:58:49.899Z,5.50
2022-12-25T06:59:54.703Z,5.10
2022-12-25T07:00:50.928Z,5.40
2022-12-25T07:01:50.074Z,5.40
2022-12-25T07:02:50.073Z,5.20
2022-12-25T07:03:49.922Z,5.30
2022-12-25T07:04:49.813Z,5.10
2022-12-25T07:05:49.799Z,5.20
2022-12-25T07:06:49.793Z,4.80
2022-12-25T07:07:49.784Z,5.30
2022-12-25T07:08:49.802Z,4.80
2022-12-25T07:09:49.764Z,4.90
2022-12-25T07:10:49.748Z,4.70
2022-12-25T07:11:49.732Z,4.50
2022-12-25T07:12:49.727Z,4.30
2022-12-25T07:13:49.754Z,4.50
2022-12-25T07:14:49.731Z,4.30
2022-12-25T07:15:49.705Z,4.40
2022-12-25T07:16:49.703Z,4.60
2022-12-25T07:17:49.679Z,4.20
2022-12-25T07:18:49.679Z,4.10
2022-12-25T07:19:49.650Z,4.30
2022-12-25T07:20:49.641Z,4.20
2022-12-25T07:21:49.641Z,4.30
2022-12-25T07:22:49.625Z,4.10
2022-12-25T07:23:49.628Z,4.80
2022-12-25T07:24:49.657Z,5.30
2022-12-25T07:25:49.620Z,5.40
2022-12-25T07:26:49.569Z,6.60
2022-12-25T07:27:49.564Z,7.00
2022-12-25T07:28:49.554Z,7.20
2022-12-25T07:29:49.568Z,6.60
2022-12-25T07:30:49.528Z,5.90
2022-12-25T07:31:49.600Z,6.50
2022-12-25T07:32:50.375Z,6.40
2022-12-25T07:33:49.503Z,6.30
2022-12-25T07:34:49.517Z,7.00
2022-12-25T07:35:49.490Z,7.00
2022-12-25T07:36:49.467Z,6.70
2022-12-25T07:37:49.452Z,7.00
2022-12-25T07:38:49.443Z,7.10
2022-12-25T07:39:49.447Z,7.40
2022-12-25T07:40:49.420Z,8.60
2022-12-25T07:41:49.414Z,9.10
2022-12-25T07:42:49.424Z,8.60
2022-12-25T07:43:49.391Z,8.90
2022-12-25T07:44:49.431Z,8.90
2022-12-25T07:45:49.424Z,9.20
2022-12-25T07:46:49.362Z,9.50
2022-12-25T07:47:49.347Z,9.30
2022-12-25T07:48:49.342Z,8.80
2022-12-25T07:49:49.346Z,8.80
2022-12-25T07:50:49.310Z,9.00
2022-12-25T07:51:49.307Z,8.50
2022-12-25T07:52:49.283Z,9.20
2022-12-25T07:53:49.273Z,7.90
2022-12-25T07:54:49.313Z,8.20
2022-12-25T07:55:49.260Z,8.00
2022-12-25T07:56:49.243Z,7.90
2022-12-25T07:57:49.235Z,7.90
2022-12-25T07:58:49.234Z,7.40
2022-12-25T07:59:49.239Z,8.10
2022-12-25T08:00:49.294Z,8.10
2022-12-25T08:01:49.570Z,7.50
2022-12-25T08:02:49.458Z,7.80
2022-12-25T08:03:49.292Z,7.80
2022-12-25T08:04:49.186Z,8.10
2022-12-25T08:05:49.164Z,7.60
2022-12-25T08:06:49.142Z,7.40
2022-12-25T08:07:55.471Z,7.60
2022-12-25T08:08:50.151Z,6.90
2022-12-25T08:09:49.135Z,7.00
2022-12-25T08:10:49.115Z,6.90
2022-12-25T08:11:49.081Z,6.90
2022-12-25T08:12:49.072Z,8.20
2022-12-25T08:13:49.068Z,6.80
2022-12-25T08:14:49.084Z,7.50
2022-12-25T08:15:49.053Z,7.90
2022-12-25T08:16:49.145Z,7.90
2022-12-25T08:17:49.047Z,7.50
2022-12-25T08:18:49.004Z,8.80
2022-12-25T08:19:49.000Z,8.60
2022-12-25T08:20:49.001Z,9.50
2022-12-25T08:21:48.983Z,10.50
2022-12-25T08:22:48.961Z,12.00
2022-12-25T08:23:48.972Z,13.10
2022-12-25T08:24:48.956Z,13.00
2022-12-25T08:25:48.949Z,13.70
2022-12-25T08:26:48.947Z,20.40
2022-12-25T08:27:48.913Z,20.10
2022-12-25T08:28:48.954Z,22.60
2022-12-25T08:29:48.914Z,25.60
2022-12-25T08:30:48.908Z,22.60
2022-12-25T08:31:48.870Z,22.70
2022-12-25T08:32:48.899Z,21.70
2022-12-25T08:33:49.057Z,22.30
2022-12-25T08:34:48.934Z,21.40
2022-12-25T08:35:48.847Z,21.70
2022-12-25T08:36:48.813Z,20.50
2022-12-25T08:37:48.800Z,20.20
2022-12-25T08:38:48.790Z,20.50
2022-12-25T08:39:48.808Z,19.80
2022-12-25T08:40:48.831Z,19.30
2022-12-25T08:41:48.828Z,19.60
2022-12-25T08:42:48.799Z,17.50
2022-12-25T08:43:48.734Z,17.80
2022-12-25T08:44:48.734Z,15.70
2022-12-25T08:45:48.898Z,15.20
2022-12-25T08:46:48.947Z,14.10
2022-12-25T08:47:48.687Z,13.70
2022-12-25T08:48:48.690Z,13.60
2022-12-25T08:49:48.669Z,12.90
2022-12-25T08:50:48.662Z,13.00
2022-12-25T08:51:48.756Z,13.70
2022-12-25T08:52:48.668Z,12.80
2022-12-25T08:53:48.693Z,13.00
2022-12-25T08:54:48.707Z,13.80
2022-12-25T08:55:48.629Z,13.70
2022-12-25T08:56:48.603Z,13.10
2022-12-25T08:57:48.621Z,14.30
2022-12-25T08:58:48.640Z,13.20
2022-12-25T08:59:48.565Z,13.40
2022-12-25T09:00:48.550Z,13.20
2022-12-25T09:01:48.700Z,13.20
2022-12-25T09:02:48.644Z,13.40
2022-12-25T09:03:48.646Z,13.90
2022-12-25T09:04:48.513Z,12.90
2022-12-25T09:05:48.519Z,12.60
2022-12-25T09:06:48.488Z,11.50
2022-12-25T09:07:48.476Z,12.80
2022-12-25T09:08:49.865Z,13.60
2022-12-25T09:09:48.450Z,12.70
2022-12-25T09:10:48.447Z,13.60
2022-12-25T09:11:48.426Z,13.10
2022-12-25T09:12:48.429Z,13.00
2022-12-25T09:13:48.442Z,12.50
2022-12-25T09:14:48.404Z,12.10
2022-12-25T09:15:48.456Z,13.10
2022-12-25T09:16:48.381Z,13.80
2022-12-25T09:17:48.365Z,12.80
2022-12-25T09:18:48.408Z,12.80
2022-12-25T09:19:48.341Z,13.40
2022-12-25T09:20:48.346Z,13.10
2022-12-25T09:21:48.323Z,12.60
2022-12-25T09:22:48.307Z,13.30
2022-12-25T09:23:48.325Z,12.50
2022-12-25T09:24:48.294Z,12.70
2022-12-25T09:25:48.285Z,12.80
2022-12-25T09:26:48.263Z,12.60
2022-12-25T09:27:48.257Z,13.20
2022-12-25T09:28:52.063Z,11.40
2022-12-25T09:29:48.235Z,11.90
2022-12-25T09:30:48.242Z,11.70
2022-12-25T09:31:48.224Z,9.60
2022-12-25T09:32:48.199Z,9.10
2022-12-25T09:33:48.186Z,9.30
2022-12-25T09:34:48.203Z,8.80
2022-12-25T09:35:48.163Z,8.00
2022-12-25T09:36:48.155Z,7.40
2022-12-25T09:37:48.163Z,7.00
2022-12-25T09:38:48.137Z,6.80
2022-12-25T09:39:48.128Z,6.30
2022-12-25T09:40:48.133Z,6.90
2022-12-25T09:41:48.114Z,6.40
2022-12-25T09:42:48.109Z,7.00
2022-12-25T09:43:48.139Z,6.40
2022-12-25T09:44:48.152Z,5.80
2022-12-25T09:45:48.118Z,6.20
2022-12-25T09:46:48.119Z,6.50
2022-12-25T09:47:48.038Z,6.10
2022-12-25T09:48:48.040Z,6.40
2022-12-25T09:49:48.041Z,6.20
2022-12-25T09:50:48.064Z,5.90
2022-12-25T09:51:48.003Z,6.30
2022-12-25T09:52:47.984Z,5.80
2022-12-25T09:53:47.971Z,6.30
2022-12-25T09:54:47.981Z,6.10
2022-12-25T09:55:47.952Z,6.40
2022-12-25T09:56:47.954Z,6.00
2022-12-25T09:57:47.926Z,5.80
2022-12-25T09:58:47.926Z,6.30
2022-12-25T09:59:47.919Z,6.20
2022-12-25T10:00:47.933Z,6.30
2022-12-25T10:01:47.974Z,5.80
2022-12-25T10:02:48.031Z,6.60
2022-12-25T10:03:47.888Z,7.50
2022-12-25T10:04:47.859Z,6.20
2022-12-25T10:05:47.848Z,5.90
2022-12-25T10:06:47.840Z,6.40
2022-12-25T10:07:47.820Z,6.30
2022-12-25T10:08:47.826Z,6.30
2022-12-25T10:09:47.804Z,6.50
2022-12-25T10:10:47.810Z,6.30
2022-12-25T10:11:47.797Z,6.10
2022-12-25T10:12:47.763Z,7.10
2022-12-25T10:13:47.753Z,7.20
2022-12-25T10:14:47.736Z,6.90
2022-12-25T10:15:47.822Z,6.70
2022-12-25T10:16:47.729Z,6.30
2022-12-25T10:17:47.724Z,6.50
2022-12-25T10:18:47.707Z,6.50
2022-12-25T10:19:47.688Z,6.50
2022-12-25T10:20:47.727Z,6.40
2022-12-25T10:21:47.695Z,6.30
2022-12-25T10:22:47.690Z,6.30
2022-12-25T10:23:47.651Z,6.40
2022-12-25T10:24:47.633Z,7.10
2022-12-25T10:25:47.628Z,6.30
2022-12-25T10:26:47.643Z,6.20
2022-12-25T10:27:47.607Z,6.90
2022-12-25T10:28:47.611Z,6.60
2022-12-25T10:29:47.577Z,6.90
2022-12-25T10:30:47.586Z,6.10
2022-12-25T10:31:47.584Z,6.40
2022-12-25T10:32:47.572Z,6.60
2022-12-25T10:33:47.532Z,6.70
2022-12-25T10:34:47.522Z,7.20
2022-12-25T10:35:47.533Z,7.90
2022-12-25T10:36:47.517Z,8.10
2022-12-25T10:37:47.488Z,8.30
2022-12-25T10:38:47.494Z,8.00
2022-12-25T10:39:47.478Z,8.00
2022-12-25T10:40:47.461Z,9.20
2022-12-25T10:41:47.494Z,8.90
2022-12-25T10:42:47.437Z,8.70
2022-12-25T10:43:47.438Z,8.60
2022-12-25T10:44:47.420Z,8.70
2022-12-25T10:45:47.411Z,9.30
2022-12-25T10:46:47.490Z,9.30
2022-12-25T10:47:50.066Z,8.90
2022-12-25T10:48:48.373Z,9.10
2022-12-25T10:49:47.366Z,9.50
2022-12-25T10:50:47.360Z,9.50
2022-12-25T10:51:47.366Z,8.80
2022-12-25T10:52:47.340Z,9.50
2022-12-25T10:53:47.326Z,9.60
2022-12-25T10:54:47.323Z,8.80
2022-12-25T10:55:47.300Z,9.00
2022-12-25T10:56:47.306Z,8.20
2022-12-25T10:57:47.281Z,8.20
2022-12-25T10:58:47.285Z,7.40
2022-12-25T10:59:47.256Z,7.40
2022-12-25T11:00:47.261Z,7.50
2022-12-25T11:01:51.003Z,7.20
2022-12-25T11:02:48.433Z,7.70
2022-12-25T11:03:47.239Z,7.40
2022-12-25T11:04:47.200Z,7.30
2022-12-25T11:05:47.197Z,7.00
2022-12-25T11:06:47.175Z,7.10
2022-12-25T11:07:47.202Z,8.90
2022-12-25T11:08:47.163Z,40.10
2022-12-25T11:09:47.145Z,33.00
2022-12-25T11:10:47.142Z,21.80
2022-12-25T11:11:47.123Z,23.10
2022-12-25T11:12:47.108Z,12.20
2022-12-25T11:13:47.122Z,13.90
2022-12-25T11:14:47.101Z,11.60
2022-12-25T11:15:47.143Z,9.90
2022-12-25T11:16:47.105Z,9.50
2022-12-25T11:17:47.091Z,11.30
2022-12-25T11:18:47.050Z,16.50
2022-12-25T11:19:47.034Z,19.60
2022-12-25T11:20:47.277Z,18.90
2022-12-25T11:21:47.024Z,19.10
2022-12-25T11:22:47.010Z,18.40
2022-12-25T11:23:47.041Z,22.30
2022-12-25T11:24:46.984Z,23.40
2022-12-25T11:25:46.973Z,22.10
2022-12-25T11:26:46.995Z,22.30
2022-12-25T11:27:51.817Z,17.70
2022-12-25T11:28:47.961Z,15.40
2022-12-25T11:29:46.939Z,15.80
2022-12-25T11:30:46.915Z,15.70
2022-12-25T11:31:46.988Z,14.80
2022-12-25T11:32:46.894Z,14.70
2022-12-25T11:33:46.905Z,15.00
2022-12-25T11:34:46.886Z,14.50
2022-12-25T11:35:46.860Z,13.10
2022-12-25T11:36:46.859Z,11.90
2022-12-25T11:37:46.845Z,9.80
2022-12-25T11:38:46.872Z,8.00
2022-12-25T11:39:46.824Z,7.80
2022-12-25T11:40:46.808Z,6.70
2022-12-25T11:41:46.796Z,5.20
2022-12-25T11:42:46.782Z,4.50
2022-12-25T11:43:46.783Z,5.00
2022-12-25T11:44:46.806Z,4.70
2022-12-25T11:45:46.755Z,4.20
2022-12-25T11:46:46.812Z,3.40
2022-12-25T11:47:46.733Z,3.90
2022-12-25T11:48:46.756Z,3.00
2022-12-25T11:49:49.841Z,3.60
2022-12-25T11:50:46.706Z,3.50
2022-12-25T11:51:46.685Z,3.10
2022-12-25T11:52:46.679Z,3.00
2022-12-25T11:53:46.672Z,3.10
2022-12-25T11:54:46.673Z,3.50
2022-12-25T11:55:46.640Z,3.40
2022-12-25T11:56:46.640Z,3.30
2022-12-25T11:57:46.625Z,3.60
2022-12-25T11:58:46.656Z,3.60
2022-12-25T11:59:46.611Z,3.80
2022-12-25T12:00:46.590Z,3.90
2022-12-25T12:01:46.647Z,5.30
2022-12-25T12:02:46.712Z,5.90
2022-12-25T12:03:46.591Z,6.10
2022-12-25T12:04:46.564Z,5.40
2022-12-25T12:05:46.551Z,6.30
2022-12-25T12:06:46.526Z,6.40
2022-12-25T12:07:46.516Z,9.60
2022-12-25T12:08:46.518Z,10.10
2022-12-25T12:09:46.508Z,6.80
2022-12-25T12:10:46.487Z,5.80
2022-12-25T12:11:46.469Z,7.20
2022-12-25T12:12:49.018Z,6.90
2022-12-25T12:13:46.448Z,9.60
2022-12-25T12:14:46.463Z,9.50
2022-12-25T12:15:46.426Z,7.00
2022-12-25T12:16:46.450Z,6.00
2022-12-25T12:17:46.411Z,6.00
2022-12-25T12:18:50.367Z,4.10
2022-12-25T12:19:46.383Z,4.00
2022-12-25T12:20:46.386Z,4.20
2022-12-25T12:21:46.362Z,4.50
2022-12-25T12:22:46.349Z,4.40
2022-12-25T12:23:46.340Z,4.60
2022-12-25T12:24:46.367Z,3.90
2022-12-25T12:25:46.347Z,4.40
2022-12-25T12:26:46.331Z,4.00
2022-12-25T12:27:46.294Z,4.40
2022-12-25T12:28:46.295Z,3.80
2022-12-25T12:29:46.288Z,3.30
2022-12-25T12:30:46.277Z,6.90
2022-12-25T12:31:46.291Z,7.30
2022-12-25T12:32:46.276Z,7.10
2022-12-25T12:33:46.230Z,6.60
2022-12-25T12:34:46.221Z,5.60
2022-12-25T12:35:46.219Z,4.80
2022-12-25T12:36:46.204Z,5.10
2022-12-25T12:37:46.201Z,4.10
2022-12-25T12:38:46.175Z,2.60
2022-12-25T12:39:46.169Z,3.00
2022-12-25T12:40:46.178Z,2.80
2022-12-25T12:41:46.144Z,3.20
2022-12-25T12:42:46.163Z,2.70
2022-12-25T12:43:46.123Z,2.60
2022-12-25T12:44:46.116Z,2.70
2022-12-25T12:45:46.149Z,2.80
2022-12-25T12:46:46.087Z,2.70
2022-12-25T12:47:46.086Z,2.80
2022-12-25T12:48:46.074Z,2.60
2022-12-25T12:49:46.059Z,2.40
2022-12-25T12:50:46.064Z,2.20
2022-12-25T12:51:46.043Z,2.30
2022-12-25T12:52:46.024Z,2.70
2022-12-25T12:53:46.009Z,2.50
2022-12-25T12:54:46.004Z,1.90
2022-12-25T12:55:46.005Z,2.00
2022-12-25T12:56:45.983Z,2.10
2022-12-25T12:57:45.969Z,2.20
2022-12-25T12:58:45.959Z,2.30
2022-12-25T12:59:45.947Z,1.90
2022-12-25T13:00:45.983Z,2.40
2022-12-25T13:01:46.036Z,1.90
2022-12-25T13:02:45.969Z,1.80
2022-12-25T13:03:45.901Z,2.00
2022-12-25T13:04:45.910Z,2.00
2022-12-25T13:05:45.914Z,1.60
2022-12-25T13:06:45.871Z,2.00
2022-12-25T13:07:45.865Z,2.00
2022-12-25T13:08:45.848Z,2.20
2022-12-25T13:09:45.831Z,1.90
2022-12-25T13:10:45.828Z,2.00
2022-12-25T13:11:45.832Z,1.60
2022-12-25T13:12:45.822Z,1.70
2022-12-25T13:13:45.811Z,1.70
2022-12-25T13:14:45.792Z,1.80
2022-12-25T13:15:45.785Z,2.00